Ksea taf.

Data at: 1517 UTC 05 Oct 2023. KSEA 051453Z 03007KT 2SM BR BKN003 13/12 A3037 RMK AO2 SFC VIS 6 SLP291 T01280117 51001. KSEA 051506Z 0515/0618 01010KT 5SM BR BKN002. FM051700 01008KT 6SM BR BKN006. FM051900 36010KT P6SM SCT012.

Impacts TAF Board. TAF Home. Plot. Data. Board. Info. For situational awareness. Not to be used for flight planning purposes. IDs: KSEA - Seattle-Tacoma Intl, WA, US. Issued at 0258 UTC 16 Jan 2023. Updated at 0349 UTC 16 Jan 2023. Potential Impact: None: Slight: Moderate: High: Time 0253Z 16/04Z 16/05Z 16/06Z 16/07Z 16/08Z.

Seattle-Tacoma International Airport is a large airport in Washington, United States. The airport is located at latitude 47.44989 and longitude -122.31178. The airport has 3 runways: 16L/34R, 16C/34C and 16R/34L. The ICAO airport code of this field is KSEA. The local airport ID (FAA LID) of this airport is SEA. The airport's IATA code is SEA. TAF Home. Plot. Data. Board. Info. For situational awareness. Not to be used for flight planning purposes. IDs: KSEA - Seattle-Tacoma Intl, WA, US. Issued at 1742 UTC ...ksea 031753z 07003kt 10sm sct010 bkn015 13/10 a3020 rmk ao2 slp234 60000 t01330100 10139 20117 51024 ksea 031724z 0318/0424 35005kt p6sm ovc014 fm032100 ... rctp 031805z 03013g23kt 4000 -ra sct006 bkn008 bkn015 26/26 q1007 rera ws all rwy nosig rmk a2975 taf rctp 031700z 0318/0424 02020kt 8000 few012 bkn016 bkn040 tempo 0318/0324 ...Sep 23, 2023 · TAF for: KSEA (Seattle-Tacoma Intl, WA, US) issued at 2322 UTC 23 Sep 2023: Text: KSEA 232322Z 2400/2506 24007KT P6SM FEW025 BKN040 OVC050 : Forecast period: 0000 to 0300 UTC 24 September 2023: Forecast type: FROM: standard forecast or significant change: Winds: from the WSW (240 degrees) at 8 MPH (7 knots; 3.6 m/s) Visibility: 6 or more sm (10 ... TAF for: KSEA (Seattle-Tacoma Intl, WA, US) issued at 1739 UTC 10 Oct 2023: Text: KSEA 101739Z 1018/1124 13008KT P6SM -RA FEW040 OVC050 : Forecast period: 1800 to 1900 UTC 10 October 2023: Forecast type: FROM: standard forecast or significant change: Winds: from the SE (130 degrees) at 9 MPH (8 knots; 4.1 m/s) Visibility: 6 or more sm (10+ km ...

ksea 180853z 19010kt 10sm few035 bkn065 ovc200 16/11 a2998 rmk ao2 slp156 t01610106 52005 ksea 180914z 1809/1912 19010kt p6sm bkn060 fm181000 19010kt p6sm vcsh bkn035 ovc050 tempo 1810/1814 -shra bkn025 ovc040 fm181700 23008kt p6sm sct025 bkn045 fm182100 33006kt p6sm bkn200 fm190500 02005kt p6sm bkn050TAF Report. KSEA 181742Z 1818/1924 06008KT P6SM SCT020 BKN050 FM182300 35005KT P6SM SCT050 SCT200 FM190300 03005KT P6SM BKN120 OVC200 …TAF Hannover Airport. Hannover Airport is a large airport in Lower Saxony, Germany. The airport is located at latitude 52.46226 and longitude 9.68628. The airport has 3 runways: 9L/27R, 9R/27L and 9C/27C. The ICAO airport code of this field is EDDV. The airport's IATA code is HAJ.

NOTE: LAMP data beyond the time of the TAF data is denoted as LAMP in Type and colored magenta. Raw TAF. KMSP 210900Z 2109/2212 14006KT P6SM FEW250. FM212000 15010KT P6SM FEW250. Raw METAR.The second number: (KSEA A2995/15) ensures people searching for KSEA will see this NOTAM. Anyway, just know you will see the affected location after the numbering system. 4. Type of NOTAM ... METAR and TAF acronyms in one place for easy reference. Keep it on your smartphone/iPad for easy access. You can buy it for $7.99 by clicking the blue ...

TAF for: KSEA (Seattle-Tacoma Intl, WA, US) issued at 1307 UTC 03 Oct 2023: Text: KSEA 031307Z 0313/0418 36008KT P6SM BKN007 OVC022 : Forecast period: 1300 to 1700 UTC 03 October 2023: Forecast type: FROM: standard forecast or significant change: Winds: from the N (360 degrees) at 9 MPH (8 knots; 4.1 m/s)11. In the KSEA TAF, what is the forecast visibility in the 2 nd predominant group? The first line of the TAF counts as the *first* predominant group. TEMPO is NOT a predominant group. So the 2 nd predominant group is: FM090700 07010KT 4SM -SN BKN015 OVC035 The forecast visibility here is 4 SMSeattle-Tacoma International Airport is a large airport in Washington, United States. The airport is located at latitude 47.45019 and longitude -122.31232. The airport has 3 runways: 16L/34R, 16C/34C and 16R/34L. The ICAO airport code of this field is KSEA. The local airport ID (FAA LID) of this airport is SEA. The airport's IATA code is SEA.Station Type Date Time Source; KSEA: Decoded METAR: 2023/10/06: 05:53 UTC: NOAA: SEATTLE-TACOMA INTERNATIONAL AIRPORT , WA, United States (KSEA) 47-27N 122-19W 136M


Golden corral buffet and grill hoover menu

METAR KSEA 210429Z 17010KT 10SM SCT026 OVC033 07/05 A3014 RMK AO2 RAE29 P0001 T00670050. The wind is from direction 170° with a speed of 10 kt. Visibility is 10 mi. The ceiling, broken or more, is 3,300 ft. The temperature is 7 °C, with a wind chill of 3 °C.

IDs: Format: Raw Decoded Include TAF Data at: 0855 UTC 03 Oct 2023 KSEA 030829Z 35010KT 2SM -DZ OVC002 12/11 A2998 RMK AO2 DZB29 P0000 T01220111 KSEA 030524Z 0306/0412 31004KT 2SM -RA BR OVC003 FM030800 35004KT 5SM BR OVC005 FM031200 36006KT 4SM BR OVC004 FM031900 16004KT 4SM BR OVC015 FM032300 26005KT P6SM OVC030 FM040300 21005KT P6SM OVC015.

Graphical NOTAM now available for NOTAM Retrieval by ICAO Identifiers for Military Airfields only. Enter up to 50 ICAO Identifiers, separated by a space: Text Type: Report Raw. FAA Special Use Airspace (SUA) Information. Always Check Attention Notices for the most up to date information. on DoD flight planning.ksea 111453z 12013g21kt 7sm -ra bkn028 ovc041 11/08 a2954 rmk ao2 slp008 p0005 60014 t01110083 53007 ksea 111509z 1115/1218 14010kt p6sm -shra sct025 ovc040 tempo 1115/1117 12013g18kt 6sm -shra bkn025 ovc040 fm112100 23006kt p6sm -shra sct025 bkn045 ovc070 fm112300 35006kt p6sm bkn050 fm120700 vrb03kt p6sm bkn050 …METAR KSEA 140353Z 01011KT 10SM FEW250 24/09 A3012 RMK AO2 SLP202 T02440089. The wind is from direction 010° with a speed of 11 kt. Visibility is 10 mi. No ceiling has been observed. ... KSEA - Seattle-Tacoma International Airport METAR TAF. KRNT - Renton Municipal Airport (4.7 NM) METAR KBFI - Boeing Field/King County International ...METAR Home. Plot. Data. Board. Info. IDs: Format: Raw Decoded Include TAF. Data at: 1935 UTC 04 Oct 2023. Region: TOP. KATL 041852Z COR 09007KT 10SM SCT046 BKN250 28/15 A3013 RMK AO2 SLP194 T02780150 $.Winds/Temps Data. Click on map to access text data for each region. Page loaded: 07:06 UTC | 12:06 AM Pacific | 01:06 AM Mountain | 02:06 AM Central | 03:06 AM Eastern. Aviation Weather Center Homepage provides comprehensive user-friendly aviation weather Text products and graphics.TAF for: KSEA (Seattle-Tacoma Intl, WA, US) issued at 1725 UTC 14 Sep 2023: Text: KSEA 141725Z 1418/1524 01008KT P6SM FEW005 : Forecast period: 1800 to 2000 UTC 14 September 2023: Forecast type: FROM: standard forecast or significant change: Winds: from the N (10 degrees) at 9 MPH (8 knots; 4.1 m/s)

4 Agu 2021 ... METAR KSEA 040753Z 29003KT 10SM FEW250 18/13 A3003 RMK AO2 SLP175 T01830133 402780122 $. TAF KSEA 040525Z 0406/0512 01006KT P6SM FEW150 ...Renton Municipal Airport is a midsized airport in Washington, United States. The airport is located at latitude 47.49314 and longitude -122.21575. The airport has one …taf; ksea : 121132z 1212/1318 00000kt 1/4sm fg vv001 fm121800 03004kt 4sm br bkn003 fm121900 36006kt 6sm br sct004 fm122000 35007kt p6sm sct200 fm130300 06006kt p6sm ...835 FTUS46 KSEW 121640 AAB TAFSEA TAF AMD KSEA 121640Z 1217/1318 11004KT 2SM BR OVC006 FM121800 03004KT 4SM BR BKN003 FM121900 36006KT 6SM BR SCT004 FM122000 35007KT P6SM SCT200 FM130300 06006KT P6SM SKC FM131200 08007KT 6SM BCFG SCT003=. TAF issued by NWS SEA at 12 Oct 2023 16:40 UTC.TAF for: KSEA (Seattle-Tacoma Intl, WA, US) issued at 0520 UTC 07 Oct 2023: Text: KSEA 070520Z 0706/0812 01008KT P6SM SKC : Forecast period: 0600 to 1200 UTC 07 October 2023: Forecast type: FROM: standard forecast or significant change: Winds: from the N (10 degrees) at 9 MPH (8 knots; 4.1 m/s)

ksea 202053z 36014g23kt 10sm few020 sct030 bkn050 17/08 a3009 rmk ao2 slp195 t01670083 53001 ksea 202057z 2021/2124 34014g20kt p6sm few020 sct030 bkn050 fm210200 04006kt p6sm sct050 sct200 fm211400 03006kt 6sm br few040 fm211700 35011kt p6sm few100. kokv 202055z auto 32004kt 10sm clr 23/09 a3014 rmk ao2 no taf found for kokv.METAR KSEA 210753Z 22005KT 10SM SCT050 13/10 A3015 RMK AO2 SLP216 T01330100 402560122. The wind is from direction 220° with a speed of 5 kt. Visibility is 10 mi. ... KSEA - Seattle-Tacoma International Airport METAR TAF. KRNT - Renton Municipal Airport (4.7 NM) METAR KBFI - Boeing Field/King County International ...

KSEA (SEATTLE/METRO , WA, US) Text: KSEA 231125Z 2312/2418 18005KT P6SM BKN100 : Forecast period: 1200 to 1700 UTC 23 September 2023 Forecast type: FROM: standard forecast or significant change Winds: from the S (180 degrees) at 6 MPH (5 knots; 2.6 m/s) Visibility: 6 or more miles (10+ km) ...METAR KSEA 240436Z 20007KT 6SM -RA BR OVC034 08/06 A2990 RMK AO2 P0003 T00780061. Current weather is light rain, mist.The wind is from direction 200° with a speed of 7 kt. Visibility is 6 mi. The ceiling, broken or more, is 3,400 ft. The temperature is 8 °C, with a wind chill of 4 °C.METAR KSEA 281153Z 00000KT 10SM FEW010 14/12 A3007 RMK AO2 SLP188 T01390122 10200 20139 53002. There is little or no wind from a variable direction. Visibility is 10 mi. ... KSEA - Seattle-Tacoma International Airport METAR TAF. KRNT - Renton Municipal Airport (4.7 NM) METAR KBFI - Boeing Field/King County International ...METAR KSEA 190553Z 23004KT 10SM CLR 17/10 A3000 RMK AO2 SLP162 T01670100 10239 20167 50011. The wind is from direction 230° with a speed of 4 kt. Visibility is 10 mi. ... KSEA - Seattle-Tacoma International Airport METAR TAF. KRNT - Renton Municipal Airport (4.7 NM) METAR KBFI - Boeing Field/King County International ...METAR KSEA 160853Z 03004KT 10SM CLR 17/09 A2994 RMK AO2 SLP142 T01670089 58001. The wind is from direction 030° with a speed of 4 kt. Visibility is 10 mi. No ceiling has been observed. ... KSEA - Seattle-Tacoma International Airport METAR TAF. KRNT - Renton Municipal Airport (4.7 NM) METAR KBFI - Boeing Field/King County International ...Oct 6, 2023 · METAR Daniel K Inouye International Airport - PHNL/HNL. Daniel K Inouye International Airport is a large airport in Hawaii, United States. The airport is located at latitude 21.31768 and longitude -157.91730. The airport has 6 runways: 8L/26R, 4R/22L, 4L/22R, 4/22, 8R/26L and 8/26. 10. In the KSEA TAF above, what is the forecast wind speed and direction at 06Z on the 9th ? For ...METAR KSEA 180253Z 20007KT 10SM SCT250 24/13 A2974 RMK AO2 SLP072 T02440133 55007. The wind is from direction 200° with a speed of 7 kt. Visibility is 10 mi. No ceiling has been observed. ... KSEA - Seattle-Tacoma International Airport METAR TAF. KRNT - Renton Municipal Airport (4.7 NM) METAR KBFI - Boeing Field/King County International ...


Costco port orange

Impacts TAF Board. TAF Home. Plot. Data. Board. Info. For situational awareness. Not to be used for flight planning purposes. IDs: KSEA - Seattle-Tacoma Intl, WA, US. Issued at 0858 UTC 22 Jul 2023. Updated at 1021 UTC 22 Jul 2023. Potential Impact: None: Slight: Moderate: High: Time 0953Z 22/11Z 22/12Z 22/13Z 22/14Z 22/15Z

METAR KSEA 040253Z 00000KT 10SM FEW037 SCT250 14/09 A3026 RMK AO2 SLP254 T01440094 53004. There is little or no wind from a variable direction. Visibility is 10 mi. No ceiling has been observed. The temperature and wind chill are 14 °C.METAR Home. Plot. Data. Board. Info. IDs: Format: Raw Decoded Include TAF. Data at: 0557 UTC 28 Sep 2023. CYVR 280500Z 11004KT 20SM FEW012 BKN051 OVC077 12/12 A3003 RMK CF1SC6AC2 CF TR SLP170. TAF CYVR 280540Z 2806/2912 11005KT P6SM FEW010 SCT015 BKN050.METAR text: KSEA 050938Z 34005KT 10SM BKN005 13/12 A3036 RMK AO2 T01280117: Conditions at: KSEA (SEATTLE/METRO , WA, US) observed 0938 UTC 05 October 2023METAR KSEA 300953Z 21008KT 10SM FEW200 10/06 A2991 RMK AO2 SLP135 T01000056. The wind is from direction 210° with a speed of 8 kt. Visibility is 10 mi. No ceiling has been observed. ... KSEA - Seattle-Tacoma International Airport METAR TAF. KRNT - Renton Municipal Airport (4.7 NM) METAR KBFI - Boeing Field/King County International ...METAR Home. Plot. Data. Board. Info. IDs: Format: Raw Decoded Include TAF. Data at: 0557 UTC 28 Sep 2023. CYVR 280500Z 11004KT 20SM FEW012 BKN051 OVC077 12/12 A3003 RMK CF1SC6AC2 CF TR SLP170. TAF CYVR 280540Z 2806/2912 11005KT P6SM FEW010 SCT015 BKN050.METAR KSEA 160353Z 01005KT 10SM CLR 20/08 A2994 RMK AO2 SLP144 T02000078. The wind is from direction 010° with a speed of 5 kt. Visibility is 10 mi. No ceiling has been observed. ... KSEA - Seattle-Tacoma International Airport METAR TAF. KRNT - Renton Municipal Airport (4.7 NM) METAR KBFI - Boeing Field/King County International ...Clouds: few clouds at 4800 feet AGL, scattered clouds at 8000 feet AGL. TAF for: KSEA (Seattle-Tacoma Intl, WA, US) issued at 0533 UTC 11 Oct 2023. Text: KSEA 110533Z 1106/1212 16010KT P6SM -SHRA FEW025 BKN040 OVC070. Forecast period: 0600 to 1400 UTC 11 October 2023. Forecast type:METAR KSEA 230053Z 25011KT 10SM FEW060 BKN080 16/06 A3016 RMK AO2 SLP219 T01560056. The wind is from direction 250° with a speed of 11 kt. Visibility is 10 mi. The ceiling, broken or more, is 8,000 ft. The temperature and wind chill are 16 °C.METAR TAF : Current weather observation and Forecast, Seattle / Tacoma Seattle-Tacoma International Airport Washington United States. Satellite images. 10-day forecasts. ... TAF: KSEA 282052Z 2821/2924 22008KT P6SM VCTS BKN020CB FM282300 23007KT P6SM VCSH BKN050 FM290800 22005KT P6SM SHRA OVC025 FM291200 22008KT P6SM SHRA OVC009TAF KSEA 041726Z 0418/0524 24003KT P6SM FEW007 OVC010 FM042000 35005KT P6SM SCT030 SCT200 FM050200 02006KT P6SM FEW030 SCT200 FM051000 02005KT P6SM BCFG SCT004 FM051300 02005KT 4SM BR BKN003 FM051700 01008KT 6SM BR OVC010 TAF Stampede Pass Weather Station. This field is located in United States. The airport is located at latitude 47.28317 and ...

Raw TAF KSEA 100520Z 1006/1112 19008KT P6SM FEW035 BKN050 OVC070 FM101400 15009KT 6SM -RA BR BKN035 OVC040 FM102000 19012G19KT P6SM -SHRA SCT035 BKN040 OVC050 FM110600 18012G18KT P6SM -SHRA BKN030 OVC040 METAR Board Radar Display Forecast Discussion. For situational awareness. Not to be used for flight …Sep 17, 2023 · variable direction winds at 5 MPH (4 knots; 2.1 m/s) Visibility: 10 or more sm (16+ km) Ceiling: at least 12,000 feet AGL. Clouds: few clouds at 14000 feet AGL, few clouds at 17000 feet AGL, scattered clouds at 22000 feet AGL. TAF for: KSEA (Seattle-Tacoma Intl, WA, US) issued at 2146 UTC 17 Sep 2023. The second number: (KSEA A2995/15) ensures people searching for KSEA will see this NOTAM. Anyway, just know you will see the affected location after the numbering system. 4. Type of NOTAM ... METAR and TAF acronyms in one place for easy reference. Keep it on your smartphone/iPad for easy access. You can buy it for $7.99 by clicking the blue ... kraynak's christmas land Data at: 1517 UTC 05 Oct 2023. KSEA 051453Z 03007KT 2SM BR BKN003 13/12 A3037 RMK AO2 SFC VIS 6 SLP291 T01280117 51001. KSEA 051506Z 0515/0618 01010KT 5SM BR BKN002. FM051700 01008KT 6SM BR BKN006. FM051900 36010KT P6SM SCT012.METAR KSEA 040253Z 00000KT 10SM FEW037 SCT250 14/09 A3026 RMK AO2 SLP254 T01440094 53004. There is little or no wind from a variable direction. Visibility is 10 mi. ... Will you help us to keep Metar-Taf.com running? Your contribution helps further development of the site and to pay for the expenses. ten day weather erie pa Raw TAF KSEA 301405Z 3014/0118 VRB03KT P6SM SCT004 TEMPO 3015/3017 1SM BR BKN004 FM301700 VRB03KT P6SM SKC FM302200 34006KT P6SM SKC FM011300 34006KT P6SM SCT006 METAR Board Radar Display Forecast Discussion. For situational awareness. Not to be used for flight planning purposes.METAR KSEA 070553Z 01005KT 10SM CLR 21/04 A2980 RMK AO2 SLP096 T02060039 10278 20200 53004. The wind is from direction 010° with a speed of 5 kt. Visibility is 10 mi. ... KSEA - Seattle-Tacoma International Airport METAR TAF. KRNT - Renton Municipal Airport (4.7 NM) METAR KBFI - Boeing Field/King County International ... skyrim king olaf's verse Weather radar, wind and waves forecast for kiters, surfers, paragliders, pilots, sailors and anyone else. Worldwide animated weather map, with easy to use layers and precise spot forecast. METAR, TAF and NOTAMs for any airport in the World. SYNOP codes from weather stations and buoys. Forecast models ECMWF, GFS, NAM and NEMS children mercy portal METAR KSEA 260753Z 16006KT 10SM FEW042 BKN050 OVC080 14/11 A2988 RMK AO2 SLP122 T01390106 401720128. The wind is from direction 160° with a speed of 6 kt. Visibility is 10 mi. The ceiling, broken or more, is 5,000 ft. The temperature and wind chill are 14 °C. 10 day forecast york pa hourly KSEA (SEATTLE/METRO , WA, US) Text: KSEA 221120Z 2212/2318 13005KT P6SM SKC : Forecast period: 1200 to 1500 UTC 22 September 2023 Forecast type: FROM: standard forecast or significant change Winds: from the SE (130 degrees) at 6 MPH (5 knots; 2.6 m/s) Visibility: 6 or more miles (10+ km) ...KRNT 081315Z 14003KT 10SM BKN011 13/12 A2990 RMK AO2 T01330117. No TAF found for KRNT. KSEA 081303Z 19005KT 10SM BKN008 BKN110 13/12 A2990 RMK AO2 T01330117 $. KSEA 081136Z 0812/0918 18006KT P6SM SCT100. FM081400 18006KT 6SM BR OVC006. FM081600 18006KT P6SM OVC011. nba great jordan crossword clue METAR KSEA 151953Z 31006KT 10SM CLR 30/15 A3001 RMK AO2 SLP166 T03000150 $. The wind is from direction 310° with a speed of 6 kt. Visibility is 10 mi. No ceiling has been observed. ... KSEA - Seattle-Tacoma International Airport METAR TAF. KRNT - Renton Municipal Airport (4.7 NM) METAR KBFI - Boeing Field/King County International ...METAR KSEA 231453Z 18004KT 10SM SCT044 BKN070 BKN200 10/05 A3015 RMK AO2 SLP218 T01000050 56003. The wind is from direction 180° with a speed of 4 kt. Visibility is 10 mi. The ceiling, broken or more, is 7,000 ft. The temperature is 10 °C, with a wind chill of 8 °C. mississippi river stage helena IDs: Search METAR Sites. ADDS Station Table. NCEI METAR Archive. Page loaded: 22:18 UTC | 03:18 PM Pacific | 04:18 PM Mountain | 05:18 PM Central | 06:18 PM Eastern. Aviation Weather Center Homepage provides comprehensive user-friendly aviation weather Text products and graphics.taf; kpdx : 101720z 1018/1118 14009kt p6sm vcsh ovc020 fm101900 15010kt p6sm vcsh ovc018 fm102000 19010g22kt p6sm vcsh bkn019 fm102100 20013g24kt p6sm -shra bkn035 fm110200 20011kt p6sm shra ovc026 fm110600 19013g26kt p6sm shra ovc040 kttd 8nm e :METAR Seattle Paine Field International - KPAE/PAE. Seattle Paine Field International is a midsized airport in Washington, United States. The airport is located at latitude 47.90732 and longitude -122.28209. The airport has 2 runways: 16L/34R and 16R/34L. glass fiber ff14 Impacts TAF Board. TAF Home. Plot. Data. Board. Info. For situational awareness. Not to be used for flight planning purposes. IDs: KSEA - Seattle-Tacoma Intl, WA, US. Issued at 0528 UTC 09 Apr 2023. Updated at 0946 UTC 09 Apr 2023. Potential Impact: None: Slight: Moderate: High: Time 0853Z 09/10Z 09/11Z 09/12Z 09/13Z 09/14Z red stag supplies METAR for: KSEA (Seattle-Tacoma Intl, WA, US) Text: KSEA 050353Z 00000KT 10SM CLR 07/M03 A3016 RMK AO2 SLP222 T00721028: Temperature: 7.2°C ( 45°F) ils td jakes ksea 180853z 19010kt 10sm few035 bkn065 ovc200 16/11 a2998 rmk ao2 slp156 t01610106 52005 ksea 180914z 1809/1912 19010kt p6sm bkn060 fm181000 19010kt p6sm vcsh bkn035 ovc050 tempo 1810/1814 -shra bkn025 ovc040 fm181700 23008kt p6sm sct025 bkn045 fm182100 33006kt p6sm bkn200 fm190500 02005kt p6sm bkn050METAR for: KSEA (Seattle-Tacoma Intl, WA, US) Text: KSEA 231153Z 21007KT 10SM SCT120 OVC240 14/08 A2991 RMK AO2 SLP134 T01390078 10172 20139 55000 bxm9 Decoded METAR for Seattle Tacoma International airport KSEA SEA. METAR issued by KSEA on Tuesday, October 3, 2023 at 17:53 UTC, Warning : this METAR is out of date, issued 1 days and 29 hours and -1391 minutes ago. visibility is 16 km = 10 sm. The temperature is 13 °C = 55 °F, dew point is 10 °C = 50 °F . This correspond to 82% relative ...KSEA 111353Z 11012KT 7SM -RA FEW035 BKN045 OVC060 11/08 A2952 RMK AO2 SLP002 P0008 T01060083: Conditions at: KSEA (SEATTLE/METRO , WA, US) observed 1353 UTC 11 October 2023 Temperature: 10.6°C (51°F) Dewpoint: 8.3°C (47°F) [RH = 86%] Pressure (altimeter): 29.52 inches Hg (999.7 mb)